Time;durP1;ratioP1;P1;durP2;ratioP2;P2;SDS_P1;SDS_P2;PMS_P1;PMS_P2;Temp;Humidity;BMP_temperature;BMP_pressure;BME280_temperature;BME280_humidity;BME280_pressure;Samples;Min_cycle;Max_cycle;Signal;HPM_P1;HPM_P2
2022/06/13 00:01:30;;;;;;;14.35;8.75;;;;;;;14.40;100.00;93113.31;5167837;27;20490;-87
2022/06/13 00:04:03;;;;;;;13.25;9.27;;;;;;;14.22;100.00;93084.09;5165900;27;20046;-87
2022/06/13 00:06:30;;;;;;;14.07;8.88;;;;;;;14.43;100.00;93107.66;5167379;27;20042;-85
2022/06/13 00:08:58;;;;;;;12.43;8.27;;;;;;;14.44;100.00;93106.63;5166007;27;20042;-87
2022/06/13 00:11:26;;;;;;;10.80;7.72;;;;;;;14.37;100.00;93093.09;5166553;27;20042;-86
2022/06/13 00:14:01;;;;;;;11.57;8.10;;;;;;;14.34;100.00;93107.25;5167150;27;20638;-86
2022/06/13 00:16:30;;;;;;;10.05;8.00;;;;;;;14.23;100.00;93097.78;5165446;27;20057;-85
2022/06/13 00:18:58;;;;;;;11.85;7.65;;;;;;;14.16;100.00;93100.53;5166379;27;20086;-86
2022/06/13 00:21:28;;;;;;;13.65;8.27;;;;;;;14.08;100.00;93099.13;5166288;27;20042;-86
2022/06/13 00:23:55;;;;;;;10.57;7.45;;;;;;;14.11;100.00;93096.06;5166918;27;20038;-86
2022/06/13 00:26:26;;;;;;;8.68;6.65;;;;;;;14.07;100.00;93102.72;5163695;27;20057;-87
2022/06/13 00:28:56;;;;;;;9.05;6.50;;;;;;;13.82;100.00;93108.22;5164977;27;20046;-86
2022/06/13 00:31:24;;;;;;;8.90;5.90;;;;;;;13.65;100.00;93105.63;5165711;27;20049;-86
2022/06/13 00:33:54;;;;;;;8.23;6.25;;;;;;;13.59;100.00;93104.72;5166987;27;20137;-86
2022/06/13 00:36:23;;;;;;;8.50;5.68;;;;;;;13.35;100.00;93100.44;5165176;27;20125;-86
2022/06/13 00:38:49;;;;;;;9.38;6.60;;;;;;;13.43;100.00;93109.59;5165472;27;20050;-86
2022/06/13 00:41:23;;;;;;;8.48;7.00;;;;;;;13.46;100.00;93098.03;5164486;27;20046;-86
2022/06/13 00:43:53;;;;;;;9.40;6.07;;;;;;;13.51;100.00;93090.41;5165050;27;20045;-86
2022/06/13 00:46:22;;;;;;;8.27;6.22;;;;;;;13.65;100.00;93103.03;5164421;27;20039;-88
2022/06/13 00:48:55;;;;;;;7.70;6.43;;;;;;;13.74;100.00;93101.63;5166783;27;20085;-86
2022/06/13 00:51:22;;;;;;;9.93;7.10;;;;;;;13.73;100.00;93102.66;5164779;27;20054;-86
2022/06/13 00:53:50;;;;;;;10.35;7.60;;;;;;;13.69;100.00;93097.19;5165999;27;20058;-87
2022/06/13 00:56:28;;;;;;;8.38;6.43;;;;;;;13.85;100.00;93118.09;5163965;27;20038;-85
2022/06/13 00:59:02;;;;;;;8.05;6.22;;;;;;;13.90;100.00;93118.19;5165118;27;20388;-86
2022/06/13 01:01:37;;;;;;;11.82;6.70;;;;;;;13.93;100.00;93112.56;5164120;27;20062;-87
2022/06/13 01:04:08;;;;;;;13.50;7.87;;;;;;;13.93;100.00;93116.94;5164258;27;20049;-87
2022/06/13 01:06:43;;;;;;;10.27;6.60;;;;;;;13.93;100.00;93117.72;5164100;27;20278;-87
2022/06/13 01:09:14;;;;;;;8.57;6.70;;;;;;;13.89;100.00;93112.25;5163297;27;20044;-86
2022/06/13 01:11:48;;;;;;;10.10;6.72;;;;;;;13.95;100.00;93107.97;5164239;27;20038;-86
2022/06/13 01:14:42;;;;;;;9.10;7.10;;;;;;;13.87;100.00;93103.94;5162619;27;20600;-87
2022/06/13 01:17:24;;;;;;;10.32;5.80;;;;;;;13.88;100.00;93100.34;5158526;27;20449;-87
2022/06/13 01:20:20;;;;;;;8.73;6.32;;;;;;;13.87;100.00;93101.38;5163373;27;20402;-86
2022/06/13 01:23:32;;;;;;;7.68;5.93;;;;;;;13.89;100.00;93096.75;5163562;27;20042;-87
2022/06/13 01:26:41;;;;;;;9.18;6.72;;;;;;;13.86;100.00;93102.38;5135882;27;20042;-88
2022/06/13 01:29:44;;;;;;;12.15;7.88;;;;;;;13.88;100.00;93107.28;5162115;27;20437;-87
2022/06/13 01:32:25;;;;;;;11.32;8.52;;;;;;;13.88;100.00;93102.94;5162822;27;21478;-86
2022/06/13 01:35:09;;;;;;;15.45;9.00;;;;;;;13.90;100.00;93102.69;5162539;27;20035;-87
2022/06/13 01:37:55;;;;;;;13.07;8.77;;;;;;;13.86;100.00;93099.00;5164851;27;20043;-87
2022/06/13 01:40:32;;;;;;;12.57;8.75;;;;;;;13.87;100.00;93106.53;5164041;27;20041;-87
2022/06/13 01:43:12;;;;;;;13.80;9.50;;;;;;;13.86;100.00;93086.09;5165112;27;20077;-87
2022/06/13 01:45:45;;;;;;;14.48;9.18;;;;;;;13.98;100.00;93099.72;5163944;27;20039;-87
2022/06/13 01:48:24;;;;;;;12.60;9.05;;;;;;;14.03;100.00;93101.63;5166895;27;20061;-87
2022/06/13 01:51:01;;;;;;;14.30;8.80;;;;;;;14.08;100.00;93103.50;5164663;27;20511;-87
2022/06/13 01:53:40;;;;;;;14.43;8.85;;;;;;;13.95;100.00;93092.47;5163381;27;20042;-86
2022/06/13 01:56:17;;;;;;;13.38;8.95;;;;;;;14.07;100.00;93101.94;5166562;27;20053;-87
2022/06/13 01:58:51;;;;;;;12.85;9.60;;;;;;;14.09;100.00;93105.84;5165089;27;20117;-87
2022/06/13 02:01:24;;;;;;;14.15;9.70;;;;;;;13.88;100.00;93069.38;5166803;27;20042;-86
2022/06/13 02:04:01;;;;;;;15.10;9.68;;;;;;;14.15;100.00;93104.91;5166538;27;20051;-88
2022/06/13 02:06:33;;;;;;;18.13;11.30;;;;;;;14.13;100.00;93111.34;5163891;27;20043;-87
2022/06/13 02:09:10;;;;;;;20.80;13.93;;;;;;;14.13;100.00;93103.59;5164088;27;20043;-87
2022/06/13 02:11:44;;;;;;;22.65;11.88;;;;;;;14.24;100.00;93101.94;5163750;27;20046;-88
2022/06/13 02:14:16;;;;;;;16.55;11.25;;;;;;;14.22;100.00;93093.66;5165089;27;20054;-87
2022/06/13 02:16:49;;;;;;;15.70;9.43;;;;;;;14.26;100.00;93103.25;5164826;27;20046;-87
2022/06/13 02:19:22;;;;;;;15.82;11.20;;;;;;;14.32;100.00;93108.50;5163689;27;20046;-88
2022/06/13 02:21:57;;;;;;;18.33;10.98;;;;;;;14.36;100.00;93114.78;5164320;27;20108;-86
2022/06/13 02:24:31;;;;;;;15.35;10.23;;;;;;;14.38;100.00;93105.00;5163071;27;20476;-88
2022/06/13 02:27:02;;;;;;;17.23;9.82;;;;;;;14.41;100.00;93112.28;5165288;27;20054;-86
2022/06/13 02:29:35;;;;;;;15.40;9.65;;;;;;;14.46;100.00;93102.03;5164703;27;20574;-86
2022/06/13 02:32:12;;;;;;;16.77;10.15;;;;;;;14.50;100.00;93107.50;5165389;27;20053;-88
2022/06/13 02:34:48;;;;;;;15.55;9.98;;;;;;;14.47;100.00;93106.16;5164016;27;20042;-88
2022/06/13 02:37:18;;;;;;;;;;;;;;;14.51;100.00;93109.84;5166149;27;20050;-87
2022/06/13 02:39:56;;;;;;;16.83;9.93;;;;;;;14.07;100.00;93061.38;5164780;27;19926;-87
2022/06/13 02:42:27;;;;;;;16.75;10.30;;;;;;;14.32;100.00;93093.81;5162559;27;20066;-87
2022/06/13 02:45:00;;;;;;;16.27;10.65;;;;;;;14.45;100.00;93115.16;5165159;27;20062;-89
2022/06/13 02:47:32;;;;;;;14.30;10.00;;;;;;;14.45;100.00;93115.97;5163558;27;20038;-87
2022/06/13 02:50:07;;;;;;;19.05;9.63;;;;;;;14.39;100.00;93106.56;5166112;27;20042;-87
2022/06/13 02:52:42;;;;;;;15.52;10.07;;;;;;;14.44;100.00;93114.38;5168034;27;20050;-86
2022/06/13 02:55:14;;;;;;;21.48;10.93;;;;;;;14.50;100.00;93117.84;5169688;27;20069;-87
2022/06/13 02:58:00;;;;;;;15.68;10.10;;;;;;;14.49;100.00;93117.03;5175579;27;20035;-87
2022/06/13 03:00:43;;;;;;;14.07;9.15;;;;;;;14.52;100.00;93123.53;5175286;27;20046;-86
2022/06/13 03:03:15;;;;;;;17.35;10.55;;;;;;;14.46;100.00;93116.72;5175060;27;20046;-87
2022/06/13 03:05:56;;;;;;;18.92;10.23;;;;;;;14.33;100.00;93087.63;5175850;27;20050;-89
2022/06/13 03:08:39;;;;;;;17.98;9.68;;;;;;;14.60;100.00;93124.94;5174622;27;20037;-88
2022/06/13 03:11:19;;;;;;;17.60;10.07;;;;;;;13.98;100.00;93031.81;5173998;27;20042;-86
2022/06/13 03:13:58;;;;;;;20.02;10.95;;;;;;;14.45;100.00;93097.88;5174967;27;20129;-86
2022/06/13 03:16:31;;;;;;;18.42;10.05;;;;;;;14.68;100.00;93129.72;5174337;27;20086;-87
2022/06/13 03:19:26;;;;;;;20.15;11.18;;;;;;;14.03;100.00;93037.06;5174539;27;20199;-88
2022/06/13 03:22:31;;;;;;;17.08;11.07;;;;;;;14.10;100.00;93047.22;5174539;27;20137;-88
2022/06/13 03:28:40;;;;;;;;;;;;;;;;;;;;;
2022/06/13 03:31:38;;;;;;;19.88;11.95;;;;;;;13.99;100.00;93021.22;5176347;27;20046;-86
2022/06/13 03:34:34;;;;;;;18.92;12.73;;;;;;;14.51;100.00;93089.19;5174404;27;20071;-87
2022/06/13 03:37:33;;;;;;;18.90;11.80;;;;;;;13.97;100.00;93019.91;5174876;27;20122;-87
2022/06/13 03:40:13;;;;;;;21.33;12.98;;;;;;;14.93;100.00;93147.44;5165565;27;20547;-87
2022/06/13 03:46:14;;;;;;;21.17;12.15;;;;;;;14.74;100.00;93102.13;5153227;27;20110;-87
2022/06/13 03:52:16;;;;;;;21.90;13.23;;;;;;;14.10;100.00;93014.44;5173106;27;19926;-87
2022/06/13 03:55:10;;;;;;;;;;;;;;;;;;;;;
2022/06/13 03:58:22;;;;;;;21.80;13.43;;;;;;;14.42;100.00;93095.75;5173830;27;20484;-87
2022/06/13 04:01:08;;;;;;;20.58;13.02;;;;;;;14.03;100.00;93035.25;5151815;27;20525;-87
2022/06/13 04:03:53;;;;;;;24.45;15.73;;;;;;;14.76;100.00;93147.44;5172445;27;20137;-88
2022/06/13 04:07:15;;;;;;;19.50;11.95;;;;;;;14.09;100.00;93025.78;5176145;27;20042;-88
2022/06/13 04:10:05;;;;;;;18.83;12.63;;;;;;;14.87;100.00;93132.88;5035727;28;20515;-87
2022/06/13 04:13:36;;;;;;;24.20;13.75;;;;;;;14.22;100.00;93016.16;5056996;28;20156;-88
2022/06/13 04:23:01;;;;;;;;;;;;;;;;;;;;;
2022/06/13 04:25:34;;;;;;;21.02;13.15;;;;;;;15.20;100.00;93115.72;5108392;27;20050;-88
2022/06/13 04:28:09;;;;;;;24.35;13.27;;;;;;;15.42;100.00;93134.84;5173231;27;20055;-89
2022/06/13 04:30:39;;;;;;;21.48;11.98;;;;;;;15.56;100.00;93143.03;5174371;27;20054;-89
2022/06/13 04:33:36;;;;;;;;;;;;;;;;;;;;;
2022/06/13 04:36:13;;;;;;;22.38;11.75;;;;;;;15.68;100.00;93128.13;5168888;27;20045;-89
2022/06/13 04:38:44;;;;;;;21.05;11.85;;;;;;;15.67;100.00;93142.09;5173519;27;20046;-88
2022/06/13 04:41:16;;;;;;;19.00;12.15;;;;;;;15.61;100.00;93141.25;5174871;27;20484;-89
2022/06/13 04:43:47;;;;;;;18.67;12.10;;;;;;;15.72;100.00;93133.59;5173812;27;20078;-89
2022/06/13 04:46:18;;;;;;;17.05;12.63;;;;;;;15.67;100.00;93131.75;5174015;27;20049;-89
2022/06/13 04:48:49;;;;;;;18.73;12.23;;;;;;;15.75;100.00;93130.53;5173938;27;20048;-89
2022/06/13 04:51:20;;;;;;;25.30;12.10;;;;;;;15.83;100.00;93135.25;5174092;27;20065;-88
2022/06/13 04:53:57;;;;;;;17.73;12.02;;;;;;;15.90;100.00;93125.50;5173794;27;20046;-90
2022/06/13 04:56:25;;;;;;;19.38;12.27;;;;;;;16.00;100.00;93135.22;5172341;27;20050;-90
2022/06/13 04:58:54;;;;;;;20.60;12.65;;;;;;;16.11;100.00;93138.66;5173950;27;20043;-91
2022/06/13 05:01:24;;;;;;;17.90;11.40;;;;;;;16.12;100.00;93132.44;5173970;27;20042;-91
2022/06/13 05:03:55;;;;;;;16.27;10.98;;;;;;;15.89;100.00;93097.25;5174514;27;20381;-90
2022/06/13 05:06:33;;;;;;;17.73;10.25;;;;;;;15.68;100.00;93068.56;5173196;27;20050;-89
2022/06/13 05:09:05;;;;;;;18.67;11.65;;;;;;;16.34;100.00;93139.38;5172889;27;20129;-89
2022/06/13 05:11:47;;;;;;;;;;;;;;;;;;;;;
2022/06/13 05:14:38;;;;;;;12.90;8.57;;;;;;;16.39;100.00;93105.72;5171885;27;20049;-90
2022/06/13 05:17:22;;;;;;;10.77;7.20;;;;;;;16.27;100.00;93085.16;5174251;27;20038;-89
2022/06/13 05:20:08;;;;;;;12.75;7.57;;;;;;;16.82;100.00;93136.84;5174865;27;20195;-89
2022/06/13 05:23:01;;;;;;;;;;;;;;;16.93;100.00;93144.72;5179295;27;20046;-92
2022/06/13 05:25:43;;;;;;;9.27;5.70;;;;;;;17.06;100.00;93138.31;5141705;27;20245;-90
2022/06/13 05:28:33;;;;;;;9.70;6.38;;;;;;;17.05;100.00;93109.03;5193884;27;20050;-90
2022/06/13 05:31:10;;;;;;;7.50;5.55;;;;;;;17.39;100.00;93136.41;5184255;27;20478;-89
2022/06/13 05:33:41;;;;;;;6.93;5.15;;;;;;;17.52;100.00;93129.19;5172256;27;20053;-90
2022/06/13 05:36:13;;;;;;;5.80;4.60;;;;;;;17.63;100.00;93139.34;5173372;27;20404;-91
2022/06/13 05:38:48;;;;;;;8.73;5.35;;;;;;;17.99;100.00;93143.84;5173137;27;20574;-89
2022/06/13 05:44:18;;;;;;;;;;;;;;;;;;;;;
2022/06/13 05:46:53;;;;;;;10.23;7.35;;;;;;;18.81;100.00;93142.34;5170331;27;20046;-90
2022/06/13 05:49:21;;;;;;;13.25;8.18;;;;;;;19.06;100.00;93143.38;5171036;27;20064;-88
2022/06/13 05:51:50;;;;;;;9.85;5.90;;;;;;;19.31;100.00;93140.97;5173131;27;20048;-88
2022/06/13 05:54:20;;;;;;;9.38;5.28;;;;;;;19.55;100.00;93148.94;5172331;27;20047;-88
2022/06/13 05:56:54;;;;;;;9.45;4.97;;;;;;;19.67;100.00;93147.84;5172780;27;20057;-88
2022/06/13 05:59:25;;;;;;;7.70;4.30;;;;;;;19.95;100.00;93154.22;5170926;27;20042;-88
2022/06/13 06:01:51;;;;;;;10.55;5.05;;;;;;;20.31;100.00;93165.53;5172352;27;20106;-86
2022/06/13 06:04:18;;;;;;;7.65;4.57;;;;;;;20.48;100.00;93167.72;5172531;27;20122;-87
2022/06/13 06:06:48;;;;;;;8.02;4.60;;;;;;;20.83;100.00;93171.88;5172574;27;20041;-92
2022/06/13 06:09:18;;;;;;;8.18;4.43;;;;;;;20.79;100.00;93172.72;5172727;27;20046;-87
2022/06/13 06:11:46;;;;;;;9.35;4.50;;;;;;;20.77;100.00;93169.59;5167063;27;20056;-88
2022/06/13 06:14:13;;;;;;;7.38;3.70;;;;;;;20.69;100.00;93158.69;5167946;27;20038;-86
2022/06/13 06:16:47;;;;;;;6.75;4.30;;;;;;;20.64;100.00;93161.34;5172433;27;20034;-87
2022/06/13 06:19:15;;;;;;;8.80;4.50;;;;;;;20.47;100.00;93153.13;5170543;27;20403;-86
2022/06/13 06:21:42;;;;;;;8.35;4.72;;;;;;;20.58;100.00;93154.63;5170268;27;20042;-87
2022/06/13 06:24:09;;;;;;;8.10;4.28;;;;;;;20.76;100.00;93168.03;5172445;27;20046;-86
2022/06/13 06:26:40;;;;;;;8.65;4.15;;;;;;;20.92;100.00;93172.09;5171820;27;20137;-89
2022/06/13 06:29:08;;;;;;;6.95;4.13;;;;;;;21.00;100.00;93168.13;5172265;27;20048;-86
2022/06/13 06:31:37;;;;;;;7.07;4.40;;;;;;;21.25;100.00;93168.94;5171866;27;20547;-87
2022/06/13 06:34:04;;;;;;;8.05;4.43;;;;;;;20.88;100.00;93120.72;5172607;27;20046;-86
2022/06/13 06:36:30;;;;;;;6.85;3.80;;;;;;;21.44;100.00;93171.56;5170543;27;20038;-86
2022/06/13 06:38:57;;;;;;;6.32;3.95;;;;;;;21.32;100.00;93179.81;5171813;27;20110;-87
2022/06/13 06:41:24;;;;;;;5.03;4.05;;;;;;;21.28;100.00;93181.44;5172173;27;20034;-85
2022/06/13 06:43:54;;;;;;;7.90;4.35;;;;;;;21.10;100.00;93182.91;5171981;27;20042;-86
2022/06/13 06:46:21;;;;;;;6.07;3.80;;;;;;;21.57;100.00;93174.59;5170643;27;21177;-85
2022/06/13 06:48:48;;;;;;;7.45;3.58;;;;;;;21.99;100.00;93173.03;5171994;27;20038;-86
2022/06/13 06:51:15;;;;;;;7.65;4.05;;;;;;;22.15;100.00;93165.00;5172055;27;20411;-86
2022/06/13 07:01:57;;;;;;;7.78;4.70;;;;;;;23.15;100.00;93163.19;5170367;27;20056;-86
2022/06/13 07:04:24;;;;;;;7.13;4.15;;;;;;;23.35;100.00;93158.66;5171884;27;20429;-86
2022/06/13 07:06:51;;;;;;;6.80;4.05;;;;;;;23.74;100.00;93157.38;5171135;27;20453;-86
2022/06/13 07:09:18;;;;;;;7.65;4.35;;;;;;;24.06;100.00;93165.38;5170529;27;20472;-86
2022/06/13 07:11:54;;;;;;;6.13;4.00;;;;;;;24.26;100.00;93150.31;5170712;27;20050;-88
2022/06/13 07:14:24;;;;;;;9.95;3.97;;;;;;;24.58;99.13;93155.63;5170900;27;20070;-86
2022/06/13 07:16:51;;;;;;;8.70;4.15;;;;;;;24.79;97.84;93161.94;5168748;27;20050;-85
2022/06/13 07:19:18;;;;;;;7.85;3.67;;;;;;;25.01;95.75;93156.97;5169899;27;20049;-85
2022/06/13 07:21:45;;;;;;;6.78;3.53;;;;;;;25.19;94.66;93144.69;5170178;27;20054;-85
2022/06/13 07:24:13;;;;;;;6.28;3.53;;;;;;;25.29;93.52;93154.16;5170649;27;20548;-85
2022/06/13 07:26:40;;;;;;;5.93;3.35;;;;;;;24.54;98.30;93143.09;5171147;27;20049;-86
2022/06/13 07:29:07;;;;;;;5.68;2.88;;;;;;;24.31;84.98;93147.56;5170692;27;20146;-85
2022/06/13 07:31:39;;;;;;;4.63;2.75;;;;;;;23.83;88.96;93136.50;5171154;27;20042;-85
2022/06/13 07:34:06;;;;;;;5.65;3.25;;;;;;;23.79;90.26;93142.63;5170978;27;20081;-85
2022/06/13 07:36:34;;;;;;;5.82;4.00;;;;;;;24.11;97.54;93138.31;5171260;27;20434;-85
2022/06/13 07:39:01;;;;;;;3.35;2.70;;;;;;;22.96;95.78;93126.59;5173825;27;20544;-84
2022/06/13 07:41:34;;;;;;;4.40;3.13;;;;;;;22.61;100.00;93134.78;5174988;27;20137;-88
2022/06/13 07:44:01;;;;;;;5.32;3.70;;;;;;;22.67;100.00;93136.25;5175194;27;20042;-84
2022/06/13 07:46:30;;;;;;;5.85;2.78;;;;;;;22.71;100.00;93136.44;5174690;27;20085;-84
2022/06/13 07:48:59;;;;;;;4.97;3.70;;;;;;;22.38;98.25;93063.13;5174759;27;20052;-85
2022/06/13 07:51:27;;;;;;;5.43;3.40;;;;;;;22.97;98.21;93128.16;5174977;27;20042;-85
2022/06/13 07:53:55;;;;;;;4.53;3.40;;;;;;;22.97;99.65;93138.63;5172676;27;20056;-84
2022/06/13 07:56:24;;;;;;;6.28;2.63;;;;;;;22.59;100.00;93117.78;5174890;27;20034;-83
2022/06/13 07:58:52;;;;;;;6.85;3.35;;;;;;;22.03;100.00;93142.66;5174668;27;20038;-84
2022/06/13 08:01:20;;;;;;;4.82;2.97;;;;;;;22.26;100.00;93145.47;5174697;27;22379;-85
2022/06/13 08:03:47;;;;;;;4.75;3.25;;;;;;;22.06;99.61;93117.78;5174628;27;20042;-85
2022/06/13 08:06:16;;;;;;;6.25;3.83;;;;;;;22.13;100.00;93128.66;5174330;27;20038;-84
2022/06/13 08:08:45;;;;;;;4.05;3.15;;;;;;;22.18;100.00;93124.41;5174758;27;20524;-85
2022/06/13 08:11:14;;;;;;;5.63;3.67;;;;;;;22.05;99.40;93131.13;5172274;27;20051;-85
2022/06/13 08:13:42;;;;;;;5.82;3.58;;;;;;;22.12;99.93;93128.97;5172149;27;20050;-84
2022/06/13 08:16:09;;;;;;;5.10;3.10;;;;;;;22.15;97.45;93131.78;5170561;27;21411;-84
2022/06/13 08:18:37;;;;;;;5.55;4.18;;;;;;;21.93;99.74;93128.97;5174219;27;20091;-84
2022/06/13 08:21:05;;;;;;;4.95;3.75;;;;;;;21.69;98.73;93130.53;5174277;27;20042;-84
2022/06/13 08:23:34;;;;;;;5.50;3.80;;;;;;;22.32;100.00;93130.50;5174090;27;20038;-83
2022/06/13 08:26:01;;;;;;;5.75;3.53;;;;;;;22.53;97.96;93128.34;5172417;27;20422;-83
2022/06/13 08:28:30;;;;;;;6.90;4.03;;;;;;;22.34;99.51;93081.25;5173628;27;20492;-87
2022/06/13 08:31:01;;;;;;;4.85;3.50;;;;;;;22.88;97.27;93133.28;5173670;27;20064;-86
2022/06/13 08:33:29;;;;;;;7.40;4.28;;;;;;;22.92;93.25;93136.84;5173664;27;20053;-86
2022/06/13 08:36:00;;;;;;;8.00;4.32;;;;;;;22.00;95.53;93116.28;5170796;27;20050;-91
2022/06/13 08:38:27;;;;;;;8.88;5.30;;;;;;;22.47;96.28;93123.44;5172911;27;20046;-86
2022/06/13 08:41:08;;;;;;;8.48;4.05;;;;;;;22.43;99.41;93129.28;5172480;27;20799;-86
2022/06/13 08:44:03;;;;;;;7.45;4.13;;;;;;;22.23;99.37;93101.59;5172484;27;20480;-87
2022/06/13 08:46:36;;;;;;;4.43;3.55;;;;;;;22.47;97.93;93123.44;5172281;27;20422;-86
2022/06/13 08:49:25;;;;;;;9.68;5.60;;;;;;;22.61;98.04;93123.50;5172241;27;20061;-86
2022/06/13 08:51:59;;;;;;;11.13;6.45;;;;;;;22.48;97.50;93128.41;5173570;27;20074;-83
2022/06/13 08:54:37;;;;;;;9.60;4.45;;;;;;;22.45;95.47;93128.19;5172899;27;20050;-88
2022/06/13 08:57:10;;;;;;;6.07;3.85;;;;;;;22.67;98.13;93133.63;5171830;27;20066;-89
2022/06/13 08:59:45;;;;;;;8.45;3.55;;;;;;;22.69;99.38;93113.16;5173373;27;20057;-87
2022/06/13 09:02:16;;;;;;;5.97;4.05;;;;;;;22.41;96.21;93104.44;5173104;27;20046;-93
2022/06/13 09:04:50;;;;;;;8.35;4.53;;;;;;;22.71;96.08;93127.81;5173186;27;20090;-85
2022/06/13 09:07:26;;;;;;;5.30;3.80;;;;;;;22.53;96.89;93104.78;5171648;27;20475;-86
2022/06/13 09:10:05;;;;;;;5.53;3.63;;;;;;;23.13;95.94;93106.94;5171876;27;20125;-87
2022/06/13 09:12:45;;;;;;;5.60;3.78;;;;;;;23.24;95.57;93121.38;5173169;27;20053;-85
2022/06/13 09:15:17;;;;;;;5.65;3.80;;;;;;;23.38;94.32;93116.16;5172204;27;20046;-84
2022/06/13 09:17:55;;;;;;;7.15;4.05;;;;;;;23.12;93.69;93107.97;5172037;27;20035;-88
2022/06/13 09:20:29;;;;;;;6.82;4.10;;;;;;;22.85;93.47;93120.75;5171786;27;20157;-87
2022/06/13 09:23:00;;;;;;;5.60;3.90;;;;;;;23.18;95.83;93120.69;5173144;27;20049;-88
2022/06/13 09:25:38;;;;;;;4.85;3.90;;;;;;;23.46;91.11;93120.72;5173044;27;20047;-88
2022/06/13 09:28:12;;;;;;;7.05;4.57;;;;;;;23.67;89.15;93124.75;5171422;27;20049;-84
2022/06/13 09:30:44;;;;;;;6.00;3.65;;;;;;;23.96;93.08;93116.53;5171462;27;20046;-84
2022/06/13 09:33:17;;;;;;;4.78;3.58;;;;;;;23.74;86.69;93118.06;5172494;27;20101;-87
2022/06/13 09:35:48;;;;;;;5.68;3.70;;;;;;;24.12;91.78;93119.63;5172619;27;20091;-87
2022/06/13 09:38:22;;;;;;;5.32;3.83;;;;;;;24.65;89.19;93125.25;5172413;27;20483;-89
2022/06/13 09:41:04;;;;;;;5.88;3.78;;;;;;;24.11;86.07;93120.69;5170885;27;20049;-86
2022/06/13 09:43:44;;;;;;;4.38;3.60;;;;;;;23.84;89.02;93100.56;5172520;27;20554;-87
2022/06/13 09:46:22;;;;;;;8.10;3.50;;;;;;;24.00;87.99;93109.63;5171472;27;20038;-90
2022/06/13 09:49:08;;;;;;;5.05;3.65;;;;;;;24.28;90.98;93120.06;5161323;27;20112;-87
2022/06/13 09:51:47;;;;;;;6.25;3.30;;;;;;;24.22;92.87;93123.09;5165984;27;20042;-87
2022/06/13 09:54:21;;;;;;;7.47;3.55;;;;;;;24.35;84.45;93124.13;5167432;27;20050;-90
2022/06/13 09:56:58;;;;;;;8.27;4.78;;;;;;;24.53;92.16;93114.53;5166403;27;20049;-87
2022/06/13 09:59:42;;;;;;;6.50;4.75;;;;;;;24.57;87.73;93119.94;5167299;27;20059;-88
2022/06/13 10:02:18;;;;;;;6.57;4.28;;;;;;;24.23;85.73;93122.81;5169714;27;20042;-90
2022/06/13 10:04:55;;;;;;;7.00;4.53;;;;;;;24.03;87.63;93116.91;5171056;27;20103;-87
2022/06/13 10:07:28;;;;;;;8.05;4.50;;;;;;;24.14;82.63;93116.72;5166250;27;20042;-85
2022/06/13 10:10:03;;;;;;;10.20;4.30;;;;;;;24.24;85.21;93123.56;5171999;27;20087;-88
2022/06/13 10:12:39;;;;;;;9.70;5.43;;;;;;;24.07;88.58;93111.06;5170133;27;20488;-86
2022/06/13 10:15:32;;;;;;;5.85;3.78;;;;;;;24.61;90.10;93105.91;5171424;27;20415;-82
2022/06/13 10:18:21;;;;;;;8.98;4.57;;;;;;;24.77;86.31;93114.16;5170759;27;20042;-90
2022/06/13 10:20:53;;;;;;;8.50;4.28;;;;;;;24.64;86.13;93115.81;5171037;27;20484;-85
2022/06/13 10:23:34;;;;;;;7.15;3.90;;;;;;;24.84;89.84;93111.16;5168989;27;20129;-87
2022/06/13 10:26:11;;;;;;;9.93;5.50;;;;;;;24.61;85.77;93123.50;5168686;27;20046;-82
2022/06/13 10:29:03;;;;;;;17.83;6.70;;;;;;;24.20;89.04;93120.75;5170291;27;20125;-84
2022/06/13 10:31:41;;;;;;;9.65;4.90;;;;;;;24.20;86.99;93118.13;5166280;27;20129;-84
2022/06/13 10:34:21;;;;;;;10.40;6.07;;;;;;;24.01;85.46;93120.91;5169777;27;20492;-87
2022/06/13 10:36:57;;;;;;;8.60;4.55;;;;;;;23.66;87.60;93116.13;5169525;27;20527;-86
2022/06/13 10:39:27;;;;;;;9.82;4.85;;;;;;;24.17;86.95;93110.88;5171279;27;20091;-86
2022/06/13 10:41:59;;;;;;;10.25;5.50;;;;;;;24.50;85.67;93096.72;5170675;27;20173;-86
2022/06/13 10:44:26;;;;;;;18.30;8.55;;;;;;;24.35;83.04;93105.75;5169096;27;20506;-87
2022/06/13 10:46:59;;;;;;;17.98;9.30;;;;;;;24.24;82.52;93113.06;5171577;27;20566;-84
2022/06/13 10:49:31;;;;;;;15.25;8.32;;;;;;;24.24;84.87;93092.84;5166833;27;20038;-84
2022/06/13 10:52:03;;;;;;;12.93;6.38;;;;;;;24.60;82.80;93099.09;5159930;27;20046;-87
2022/06/13 10:54:37;;;;;;;9.82;5.40;;;;;;;24.68;85.62;93089.72;5161977;27;20057;-83
2022/06/13 10:57:12;;;;;;;16.65;8.77;;;;;;;24.69;82.72;93072.88;5163683;27;20043;-84
2022/06/13 10:59:39;;;;;;;10.60;5.57;;;;;;;24.90;81.89;93093.41;5162549;27;20051;-84
2022/06/13 11:02:24;;;;;;;9.30;4.93;;;;;;;24.44;81.98;93090.81;5164230;27;20046;-85
2022/06/13 11:05:06;;;;;;;7.43;4.97;;;;;;;24.22;83.83;93091.59;5162258;27;20047;-87
2022/06/13 11:07:37;;;;;;;9.57;5.90;;;;;;;24.49;84.61;93061.81;5163503;27;20134;-89
2022/06/13 11:10:05;;;;;;;5.32;4.15;;;;;;;24.88;83.75;93087.66;5169595;27;20491;-86
2022/06/13 11:12:39;;;;;;;8.48;5.20;;;;;;;24.66;80.85;92995.47;5171332;27;20034;-87
2022/06/13 11:23:58;;;;;;;6.80;4.05;;;;;;;25.46;74.70;93061.41;5172805;27;20102;-92
2022/06/13 11:29:24;;;;;;;6.78;4.30;;;;;;;25.02;73.11;93030.56;5131410;27;20071;-88
2022/06/13 11:31:52;;;;;;;9.73;4.63;;;;;;;25.55;78.74;93053.56;5166878;27;20046;-86
2022/06/13 11:34:34;;;;;;;6.95;4.07;;;;;;;25.70;74.54;93042.59;5167370;27;20050;-96
2022/06/13 11:37:04;;;;;;;5.95;4.00;;;;;;;25.52;78.81;93039.16;5169004;27;20507;-86
2022/06/13 11:39:38;;;;;;;7.78;4.47;;;;;;;26.09;77.95;93036.69;5167520;27;20054;-86
2022/06/13 11:42:16;;;;;;;5.72;3.83;;;;;;;25.61;77.36;93042.56;5167788;27;20039;-86
2022/06/13 11:44:45;;;;;;;6.55;4.07;;;;;;;25.78;77.49;93040.28;5171741;27;20046;-84
2022/06/13 11:47:22;;;;;;;5.97;3.90;;;;;;;25.60;75.20;93030.50;5172378;27;20094;-88
2022/06/13 11:49:55;;;;;;;6.97;3.83;;;;;;;25.02;77.79;93032.38;5174854;27;20258;-83
2022/06/13 11:55:26;;;;;;;5.82;4.10;;;;;;;25.40;78.70;93036.34;5174853;27;20109;-85
2022/06/13 11:57:56;;;;;;;6.53;4.40;;;;;;;25.40;80.80;93039.00;5172735;27;20042;-84
2022/06/13 12:00:28;;;;;;;8.32;4.10;;;;;;;25.63;76.44;93026.50;5168562;27;20049;-83
2022/06/13 12:03:05;;;;;;;5.95;4.38;;;;;;;25.77;77.53;93033.47;5172892;27;20049;-83
2022/06/13 12:05:36;;;;;;;5.00;4.00;;;;;;;25.96;70.61;93028.66;5172355;27;20074;-87
2022/06/13 12:08:19;;;;;;;9.93;5.22;;;;;;;26.13;76.49;93019.19;5172579;27;20050;-84
2022/06/13 12:10:58;;;;;;;5.65;4.30;;;;;;;26.12;70.87;93012.38;5167354;27;20069;-84
2022/06/13 12:13:29;;;;;;;6.93;4.50;;;;;;;25.87;75.07;93009.50;5171859;27;20038;-88
2022/06/13 12:16:03;;;;;;;5.20;3.80;;;;;;;25.53;69.52;93008.34;5173689;27;20049;-88
2022/06/13 12:18:39;;;;;;;6.75;4.32;;;;;;;25.22;74.63;93007.38;5172055;27;20038;-85
2022/06/13 12:21:18;;;;;;;5.40;4.15;;;;;;;25.30;76.01;93004.00;5172013;27;20519;-93
2022/06/13 12:23:49;;;;;;;7.45;4.28;;;;;;;25.52;74.43;92997.06;5169451;27;20046;-84
2022/06/13 12:26:23;;;;;;;6.65;4.97;;;;;;;25.31;74.15;92991.63;5172350;27;20050;-86
2022/06/13 12:28:59;;;;;;;5.82;4.25;;;;;;;25.07;77.77;93000.72;5173152;27;20084;-83
2022/06/13 12:31:35;;;;;;;7.65;4.60;;;;;;;25.02;74.63;92991.13;5174126;27;20042;-88
2022/06/13 12:34:12;;;;;;;7.90;4.72;;;;;;;25.36;77.99;92994.09;5169840;27;20050;-85
2022/06/13 12:37:05;;;;;;;7.50;4.97;;;;;;;24.99;76.53;92991.72;5172825;27;20408;-84
2022/06/13 12:39:56;;;;;;;7.57;4.38;;;;;;;25.31;78.04;92974.00;5173103;27;20041;-85
2022/06/13 12:42:41;;;;;;;7.43;4.63;;;;;;;25.41;78.37;92987.94;5172507;27;20065;-85
2022/06/13 12:45:17;;;;;;;;;;;;;;;25.38;75.41;92983.28;5173392;27;20083;-83
2022/06/13 12:47:59;;;;;;;7.43;4.50;;;;;;;25.42;76.33;92987.66;5173525;27;19929;-87
2022/06/13 12:50:53;;;;;;;6.32;4.50;;;;;;;25.49;76.96;92989.78;5172830;27;20054;-85
2022/06/13 12:53:35;;;;;;;7.53;4.88;;;;;;;25.53;72.58;92987.31;5172043;27;20050;-83